WetterOnline ( https://www.wetteronline.de )

Wetter aktuell Büsumer Deichhausen

Aktuelles Wetter: Cuxhaven (12m)

6-stündlich | Neueste Meldungen
Ortszeit Temperatur Wetter
Do, 29.10. 7:00 8.5° C Sprühregen
Do, 29.10. 1:00 9.8° C bedeckt
Mi, 28.10. 19:00 10.8° C bedeckt
Mi, 28.10. 13:00 13.1° C leicht bewölkt
Mi, 28.10. 7:00 10.2° C fast wolkenlos
Mi, 28.10. 1:00 10.4° C bedeckt
Di, 27.10. 19:00 10.9° C leichter Regen
Di, 27.10. 13:00 11.6° C bewölkt
Ortszeit Temperatur Wetter
Do, 29.10. 8:30 8.8° C leichter Regen
Do, 29.10. 8:20 8.8° C leichter Regen
Do, 29.10. 8:10 8.8° C Regen
Do, 29.10. 8:00 8.8° C leicht bewölkt
Do, 29.10. 7:50 8.8° C leicht bewölkt
Do, 29.10. 7:40 8.6° C wolkenlos
Do, 29.10. 7:30 8.2° C leicht bewölkt
Do, 29.10. 7:00 8.5° C Sprühregen
Do, 29.10. 6:30 8.5° C Regen
Do, 29.10. 6:00 8.3° C Regen
Do, 29.10. 5:30 8.9° C leichter Regen
Ortszeit Relative Feuchte Sichtweite
Do, 29.10. 7:00 83% 30 km
Do, 29.10. 1:00 89% 35 km
Mi, 28.10. 19:00 73% 55 km
Mi, 28.10. 13:00 69% 40 km
Mi, 28.10. 7:00 92% 24 km
Mi, 28.10. 1:00 77% 35 km
Di, 27.10. 19:00 76% 30 km
Di, 27.10. 13:00 73% 35 km
Ortszeit Relative Feuchte Sichtweite
Do, 29.10. 8:30 88% 9 km
Do, 29.10. 8:20 88% -
Do, 29.10. 8:10 87% -
Do, 29.10. 8:00 86% 30 km
Do, 29.10. 7:50 86% -
Do, 29.10. 7:40 87% -
Do, 29.10. 7:30 87% 35 km
Do, 29.10. 7:00 83% 30 km
Do, 29.10. 6:30 90% 9 km
Do, 29.10. 6:00 85% 13 km
Do, 29.10. 5:30 81% 29 km
Ortszeit Niederschlagsmenge Niederschlagsart
Do, 29.10. 7:00 3 l/m2 in 12 Std. Regen
Do, 29.10. 1:00 0.2 l/m2 in 6 Std. Regen
Mi, 28.10. 19:00 0.1 l/m2 in 12 Std. -
Mi, 28.10. 13:00 0.1 l/m2 in 6 Std. Regen
Mi, 28.10. 7:00 2 l/m2 in 12 Std. Regen
Mi, 28.10. 1:00 0.1 l/m2 in 6 Std. Regen
Di, 27.10. 19:00 0.1 l/m2 in 12 Std. Regen
Di, 27.10. 13:00 0.0 l/m2 in 6 Std. -
Ortszeit Niederschlagsmenge Niederschlagsart
Do, 29.10. 8:30 0.9 l/m2 in 1 Std. -
Do, 29.10. 8:20 keine Meldung -
Do, 29.10. 8:10 keine Meldung -
Do, 29.10. 8:00 0.1 l/m2 in 1 Std. Regen
Do, 29.10. 7:50 keine Meldung -
Do, 29.10. 7:40 keine Meldung -
Do, 29.10. 7:30 0.1 l/m2 in 1 Std. Schneeregen
Do, 29.10. 7:00 1.6 l/m2 in 1 Std. Regen
Do, 29.10. 6:30 1.2 l/m2 in 1 Std. -
Do, 29.10. 6:00 0.2 l/m2 in 1 Std. Regen
Do, 29.10. 5:30 0.1 l/m2 in 1 Std. -
Ortszeit Stärke Spitze Richtung
km/h Bft. km/h Grad Sektor
Do, 29.10. 7:00 20 4 70 240° SW
Do, 29.10. 1:00 14 3 36 210° SW
Mi, 28.10. 19:00 18 3 54 210° SW
Mi, 28.10. 13:00 24 4 52 210° SW
Mi, 28.10. 7:00 18 3 47 220° SW
Mi, 28.10. 1:00 14 3 47 170° S
Di, 27.10. 19:00 18 3 47 200° S
Di, 27.10. 13:00 25 4 47 210° SW
Ortszeit Stärke Spitze Richtung
km/h Bft. km/h Grad Sektor
Do, 29.10. 8:30 26 4 48 240° SW
Do, 29.10. 8:20 26 4 - 240° SW
Do, 29.10. 8:10 26 4 - 250° W
Do, 29.10. 8:00 24 4 43 240° SW
Do, 29.10. 7:50 24 4 - 240° SW
Do, 29.10. 7:40 18 3 - 230° SW
Do, 29.10. 7:30 18 3 36 230° SW
Do, 29.10. 7:00 20 4 50 240° SW
Do, 29.10. 6:30 26 4 50 270° W
Do, 29.10. 6:00 28 4 44 240° SW
Do, 29.10. 5:30 19 3 39 250° W
Ortszeit Untergrenze Bedeckung Gattung
total tief tief mittel hoch
Do, 29.10. 7:00 360 m 8/8 8/8 - - -
Do, 29.10. 1:00 390 m 8/8 8/8 - - -
Mi, 28.10. 19:00 1800 m 8/8 8/8 - - -
Mi, 28.10. 13:00 690 m 6/8 1/8 - - -
Mi, 28.10. 7:00 240 m 1/8 1/8 - - -
Mi, 28.10. 1:00 660 m 8/8 8/8 - - -
Di, 27.10. 19:00 1200 m 8/8 4/8 - - -
Di, 27.10. 13:00 630 m 7/8 7/8 - - -
Ortszeit Bedeckungsgrad in Achtel und Wolkenuntergrenze
Do, 29.10. 8:30 1(570m) 4(1110m) 8(1500m)
Do, 29.10. 8:20 1(570m) 4(1110m) 8(1500m)
Do, 29.10. 8:10 1(540m) 6(1080m) 7(1410m)
Do, 29.10. 8:00 2(570m) 5(1380m) 5(1500m)
Do, 29.10. 7:50 2(570m) 2(1020m)
Do, 29.10. 7:40 keine Wolken
Do, 29.10. 7:30 1(1500m) 4(2100m)
Do, 29.10. 7:00 1(360m) 7(2100m) 8(2400m)
Do, 29.10. 6:30 1(480m) 7(1230m) 8(1500m)
Do, 29.10. 6:00 2(990m) 7(1320m) 7(1800m)
Do, 29.10. 5:30 1(1170m) 7(2100m) 7(3000m)
Ortszeit Luftdruck NN (hPa) Tendenz (hPa in 3 Std.)
Do, 29.10. 7:00 1005 + 2,5
Do, 29.10. 1:00 1003 - 0,9
Mi, 28.10. 19:00 1005 + 0,4
Mi, 28.10. 13:00 1005 + 0,5
Mi, 28.10. 7:00 1002 + 2,2
Mi, 28.10. 1:00 999 - 1,4
Di, 27.10. 19:00 1002 - 0,4
Di, 27.10. 13:00 1003 + 0,6
Ortszeit Luftdruck NN (hPa) Tendenz (hPa in 3 Std.)
Do, 29.10. 8:30 1007 + 3,0
Do, 29.10. 8:20 1007 keine Meldung
Do, 29.10. 8:10 1007 keine Meldung
Do, 29.10. 8:00 1006 + 2,6
Do, 29.10. 7:50 1006 keine Meldung
Do, 29.10. 7:40 1006 keine Meldung
Do, 29.10. 7:30 1006 + 2,2
Do, 29.10. 7:00 1005 + 2,5
Do, 29.10. 6:30 1005 + 2,4
Do, 29.10. 6:00 1005 + 2,2
Do, 29.10. 5:30 1004 + 1,5
Ortszeit Schneehöhe (cm)
Do, 29.10. 7:00 0
Do, 29.10. 1:00 0
Mi, 28.10. 19:00 0
Mi, 28.10. 13:00 0
Mi, 28.10. 7:00 0
Mi, 28.10. 1:00 0
Di, 27.10. 19:00 0
Di, 27.10. 13:00 0
Ortszeit Schneehöhe (cm)
Do, 29.10. 8:30 0
Do, 29.10. 8:20 0
Do, 29.10. 8:10 0
Do, 29.10. 8:00 0
Do, 29.10. 7:50 0
Do, 29.10. 7:40 0
Do, 29.10. 7:30 0
Do, 29.10. 7:00 0
Do, 29.10. 6:30 0
Do, 29.10. 6:00 0
Do, 29.10. 5:30 0
Link zu dieser Seite / Seite empfehlen

Das Wetter in ...